sensor_id;sensor_type;location;lat;lon;timestamp;P1;durP1;ratioP1;P2;durP2;ratioP2
56657;SDS011;42530;52.240;19.354;2022-09-21T00:00:38;13.55;;;10.77;;
56657;SDS011;42530;52.240;19.354;2022-09-21T00:03:04;12.15;;;10.90;;
56657;SDS011;42530;52.240;19.354;2022-09-21T00:05:30;16.88;;;12.45;;
56657;SDS011;42530;52.240;19.354;2022-09-21T00:08:00;12.25;;;10.18;;
56657;SDS011;42530;52.240;19.354;2022-09-21T00:10:30;13.10;;;11.70;;
56657;SDS011;42530;52.240;19.354;2022-09-21T00:12:57;11.45;;;10.35;;
56657;SDS011;42530;52.240;19.354;2022-09-21T00:15:23;11.68;;;10.63;;
56657;SDS011;42530;52.240;19.354;2022-09-21T00:17:51;14.52;;;12.27;;
56657;SDS011;42530;52.240;19.354;2022-09-21T00:20:17;13.13;;;11.85;;
56657;SDS011;42530;52.240;19.354;2022-09-21T00:22:45;14.32;;;12.38;;
56657;SDS011;42530;52.240;19.354;2022-09-21T00:25:10;12.43;;;11.15;;
56657;SDS011;42530;52.240;19.354;2022-09-21T00:27:36;15.38;;;12.43;;
56657;SDS011;42530;52.240;19.354;2022-09-21T00:30:02;14.20;;;10.93;;
56657;SDS011;42530;52.240;19.354;2022-09-21T00:32:30;12.73;;;11.63;;
56657;SDS011;42530;52.240;19.354;2022-09-21T00:34:58;11.95;;;10.82;;
56657;SDS011;42530;52.240;19.354;2022-09-21T00:37:24;11.90;;;10.75;;
56657;SDS011;42530;52.240;19.354;2022-09-21T00:39:51;11.32;;;10.23;;
56657;SDS011;42530;52.240;19.354;2022-09-21T00:42:21;10.23;;;9.38;;
56657;SDS011;42530;52.240;19.354;2022-09-21T00:44:48;13.82;;;9.70;;
56657;SDS011;42530;52.240;19.354;2022-09-21T00:47:33;9.57;;;8.85;;
56657;SDS011;42530;52.240;19.354;2022-09-21T00:50:05;9.75;;;8.75;;
56657;SDS011;42530;52.240;19.354;2022-09-21T00:52:34;10.50;;;9.40;;
56657;SDS011;42530;52.240;19.354;2022-09-21T00:55:24;11.85;;;9.40;;
56657;SDS011;42530;52.240;19.354;2022-09-21T00:57:56;11.23;;;10.15;;
56657;SDS011;42530;52.240;19.354;2022-09-21T01:00:27;9.82;;;8.93;;
56657;SDS011;42530;52.240;19.354;2022-09-21T01:02:53;9.75;;;8.88;;
56657;SDS011;42530;52.240;19.354;2022-09-21T01:05:28;11.60;;;10.13;;
56657;SDS011;42530;52.240;19.354;2022-09-21T01:07:53;10.82;;;9.75;;
56657;SDS011;42530;52.240;19.354;2022-09-21T01:10:24;10.38;;;9.48;;
56657;SDS011;42530;52.240;19.354;2022-09-21T01:15:39;10.30;;;9.30;;
56657;SDS011;42530;52.240;19.354;2022-09-21T01:18:18;9.68;;;8.77;;
56657;SDS011;42530;52.240;19.354;2022-09-21T01:21:35;10.65;;;9.65;;
56657;SDS011;42530;52.240;19.354;2022-09-21T01:32:22;12.98;;;9.32;;
56657;SDS011;42530;52.240;19.354;2022-09-21T01:37:37;10.07;;;9.13;;
56657;SDS011;42530;52.240;19.354;2022-09-21T01:40:30;10.32;;;9.32;;
56657;SDS011;42530;52.240;19.354;2022-09-21T01:43:06;10.82;;;9.80;;
56657;SDS011;42530;52.240;19.354;2022-09-21T01:45:39;10.27;;;9.40;;
56657;SDS011;42530;52.240;19.354;2022-09-21T01:48:09;10.30;;;8.40;;
56657;SDS011;42530;52.240;19.354;2022-09-21T01:50:42;10.70;;;9.70;;
56657;SDS011;42530;52.240;19.354;2022-09-21T01:56:05;10.98;;;9.88;;
56657;SDS011;42530;52.240;19.354;2022-09-21T01:58:37;10.20;;;9.40;;
56657;SDS011;42530;52.240;19.354;2022-09-21T02:01:13;8.80;;;8.00;;
56657;SDS011;42530;52.240;19.354;2022-09-21T02:03:49;9.77;;;8.77;;
56657;SDS011;42530;52.240;19.354;2022-09-21T02:06:19;9.82;;;8.93;;
56657;SDS011;42530;52.240;19.354;2022-09-21T02:08:45;10.65;;;9.00;;
56657;SDS011;42530;52.240;19.354;2022-09-21T02:11:11;9.20;;;7.63;;
56657;SDS011;42530;52.240;19.354;2022-09-21T02:13:39;12.63;;;8.95;;
56657;SDS011;42530;52.240;19.354;2022-09-21T02:18:51;10.60;;;8.15;;
56657;SDS011;42530;52.240;19.354;2022-09-21T02:26:59;9.10;;;7.90;;
56657;SDS011;42530;52.240;19.354;2022-09-21T02:30:05;8.77;;;7.93;;
56657;SDS011;42530;52.240;19.354;2022-09-21T02:32:28;10.57;;;8.25;;
56657;SDS011;42530;52.240;19.354;2022-09-21T02:35:12;8.40;;;7.63;;
56657;SDS011;42530;52.240;19.354;2022-09-21T02:37:56;8.30;;;7.45;;
56657;SDS011;42530;52.240;19.354;2022-09-21T02:41:01;8.95;;;7.97;;
56657;SDS011;42530;52.240;19.354;2022-09-21T02:43:38;8.52;;;7.78;;
56657;SDS011;42530;52.240;19.354;2022-09-21T02:46:29;10.07;;;8.15;;
56657;SDS011;42530;52.240;19.354;2022-09-21T02:52:01;8.20;;;7.50;;
56657;SDS011;42530;52.240;19.354;2022-09-21T02:54:31;10.02;;;8.07;;
56657;SDS011;42530;52.240;19.354;2022-09-21T02:56:58;8.35;;;7.60;;
56657;SDS011;42530;52.240;19.354;2022-09-21T02:59:26;9.68;;;7.07;;
56657;SDS011;42530;52.240;19.354;2022-09-21T03:01:52;8.65;;;7.78;;
56657;SDS011;42530;52.240;19.354;2022-09-21T03:04:19;6.72;;;6.10;;
56657;SDS011;42530;52.240;19.354;2022-09-21T03:06:46;7.50;;;6.80;;
56657;SDS011;42530;52.240;19.354;2022-09-21T03:09:12;8.00;;;7.30;;
56657;SDS011;42530;52.240;19.354;2022-09-21T03:11:37;7.60;;;6.63;;
56657;SDS011;42530;52.240;19.354;2022-09-21T03:14:03;8.15;;;7.03;;
56657;SDS011;42530;52.240;19.354;2022-09-21T03:16:33;6.75;;;6.18;;
56657;SDS011;42530;52.240;19.354;2022-09-21T03:19:02;6.00;;;5.47;;
56657;SDS011;42530;52.240;19.354;2022-09-21T03:21:29;7.75;;;6.85;;
56657;SDS011;42530;52.240;19.354;2022-09-21T03:23:55;8.15;;;7.38;;
56657;SDS011;42530;52.240;19.354;2022-09-21T03:26:20;7.38;;;6.65;;
56657;SDS011;42530;52.240;19.354;2022-09-21T03:28:49;6.85;;;6.22;;
56657;SDS011;42530;52.240;19.354;2022-09-21T03:31:15;7.20;;;6.68;;
56657;SDS011;42530;52.240;19.354;2022-09-21T03:33:41;6.10;;;5.60;;
56657;SDS011;42530;52.240;19.354;2022-09-21T03:36:07;10.18;;;7.22;;
56657;SDS011;42530;52.240;19.354;2022-09-21T03:38:33;6.82;;;6.10;;
56657;SDS011;42530;52.240;19.354;2022-09-21T03:40:59;7.97;;;7.30;;
56657;SDS011;42530;52.240;19.354;2022-09-21T03:43:24;9.05;;;7.55;;
56657;SDS011;42530;52.240;19.354;2022-09-21T03:45:51;8.00;;;7.30;;
56657;SDS011;42530;52.240;19.354;2022-09-21T03:48:17;8.60;;;6.65;;
56657;SDS011;42530;52.240;19.354;2022-09-21T03:50:43;7.13;;;6.47;;
56657;SDS011;42530;52.240;19.354;2022-09-21T03:53:08;7.07;;;6.45;;
56657;SDS011;42530;52.240;19.354;2022-09-21T03:55:34;7.85;;;5.97;;
56657;SDS011;42530;52.240;19.354;2022-09-21T03:58:00;5.95;;;5.35;;
56657;SDS011;42530;52.240;19.354;2022-09-21T04:00:26;8.98;;;6.57;;
56657;SDS011;42530;52.240;19.354;2022-09-21T04:02:52;7.10;;;6.50;;
56657;SDS011;42530;52.240;19.354;2022-09-21T04:05:18;7.63;;;6.93;;
56657;SDS011;42530;52.240;19.354;2022-09-21T04:07:45;7.10;;;6.43;;
56657;SDS011;42530;52.240;19.354;2022-09-21T04:10:12;6.82;;;6.18;;
56657;SDS011;42530;52.240;19.354;2022-09-21T04:12:40;6.10;;;5.20;;
56657;SDS011;42530;52.240;19.354;2022-09-21T04:15:08;5.72;;;5.15;;
56657;SDS011;42530;52.240;19.354;2022-09-21T04:17:37;6.68;;;6.10;;
56657;SDS011;42530;52.240;19.354;2022-09-21T04:20:03;8.05;;;6.10;;
56657;SDS011;42530;52.240;19.354;2022-09-21T04:22:30;6.00;;;5.38;;
56657;SDS011;42530;52.240;19.354;2022-09-21T04:24:56;5.72;;;5.20;;
56657;SDS011;42530;52.240;19.354;2022-09-21T04:27:21;6.15;;;5.63;;
56657;SDS011;42530;52.240;19.354;2022-09-21T04:29:48;5.97;;;4.57;;
56657;SDS011;42530;52.240;19.354;2022-09-21T04:32:13;6.15;;;5.65;;
56657;SDS011;42530;52.240;19.354;2022-09-21T04:34:39;7.50;;;5.93;;
56657;SDS011;42530;52.240;19.354;2022-09-21T04:37:05;6.50;;;5.90;;
56657;SDS011;42530;52.240;19.354;2022-09-21T04:39:33;7.25;;;5.15;;
56657;SDS011;42530;52.240;19.354;2022-09-21T04:42:00;5.57;;;5.07;;
56657;SDS011;42530;52.240;19.354;2022-09-21T04:44:26;5.78;;;5.13;;
56657;SDS011;42530;52.240;19.354;2022-09-21T04:46:52;5.15;;;4.50;;
56657;SDS011;42530;52.240;19.354;2022-09-21T04:49:17;5.43;;;4.88;;
56657;SDS011;42530;52.240;19.354;2022-09-21T04:51:43;6.43;;;5.05;;
56657;SDS011;42530;52.240;19.354;2022-09-21T04:54:09;6.30;;;5.25;;
56657;SDS011;42530;52.240;19.354;2022-09-21T04:56:35;6.75;;;4.82;;
56657;SDS011;42530;52.240;19.354;2022-09-21T04:59:00;5.40;;;4.90;;
56657;SDS011;42530;52.240;19.354;2022-09-21T05:01:26;5.60;;;4.93;;
56657;SDS011;42530;52.240;19.354;2022-09-21T05:03:52;6.53;;;5.63;;
56657;SDS011;42530;52.240;19.354;2022-09-21T05:06:17;7.38;;;5.13;;
56657;SDS011;42530;52.240;19.354;2022-09-21T05:08:43;7.45;;;4.68;;
56657;SDS011;42530;52.240;19.354;2022-09-21T05:11:27;5.50;;;4.88;;
56657;SDS011;42530;52.240;19.354;2022-09-21T05:13:53;5.30;;;4.90;;
56657;SDS011;42530;52.240;19.354;2022-09-21T05:16:19;5.00;;;4.60;;
56657;SDS011;42530;52.240;19.354;2022-09-21T05:18:44;4.35;;;3.92;;
56657;SDS011;42530;52.240;19.354;2022-09-21T05:21:11;5.65;;;5.00;;
56657;SDS011;42530;52.240;19.354;2022-09-21T05:23:38;4.55;;;4.22;;
56657;SDS011;42530;52.240;19.354;2022-09-21T05:26:04;5.43;;;4.57;;
56657;SDS011;42530;52.240;19.354;2022-09-21T05:28:29;5.15;;;4.75;;
56657;SDS011;42530;52.240;19.354;2022-09-21T05:33:28;7.85;;;4.88;;
56657;SDS011;42530;52.240;19.354;2022-09-21T05:36:59;8.18;;;4.68;;
56657;SDS011;42530;52.240;19.354;2022-09-21T05:38:55;6.28;;;5.72;;
56657;SDS011;42530;52.240;19.354;2022-09-21T05:41:21;4.20;;;3.80;;
56657;SDS011;42530;52.240;19.354;2022-09-21T05:43:47;5.70;;;4.30;;
56657;SDS011;42530;52.240;19.354;2022-09-21T05:46:18;6.00;;;4.43;;
56657;SDS011;42530;52.240;19.354;2022-09-21T05:48:58;4.10;;;3.80;;
56657;SDS011;42530;52.240;19.354;2022-09-21T06:01:35;4.72;;;4.25;;
56657;SDS011;42530;52.240;19.354;2022-09-21T06:04:02;5.05;;;4.45;;
56657;SDS011;42530;52.240;19.354;2022-09-21T06:06:28;5.20;;;3.85;;
56657;SDS011;42530;52.240;19.354;2022-09-21T06:08:54;3.72;;;3.42;;
56657;SDS011;42530;52.240;19.354;2022-09-21T06:11:19;4.05;;;3.75;;
56657;SDS011;42530;52.240;19.354;2022-09-21T06:13:45;5.97;;;4.25;;
56657;SDS011;42530;52.240;19.354;2022-09-21T06:16:11;4.18;;;3.78;;
56657;SDS011;42530;52.240;19.354;2022-09-21T06:18:37;4.68;;;4.25;;
56657;SDS011;42530;52.240;19.354;2022-09-21T06:21:04;4.78;;;4.15;;
56657;SDS011;42530;52.240;19.354;2022-09-21T06:23:30;5.03;;;4.03;;
56657;SDS011;42530;52.240;19.354;2022-09-21T06:25:56;4.68;;;4.20;;
56657;SDS011;42530;52.240;19.354;2022-09-21T06:28:21;5.68;;;3.40;;
56657;SDS011;42530;52.240;19.354;2022-09-21T06:30:50;4.68;;;3.88;;
56657;SDS011;42530;52.240;19.354;2022-09-21T06:33:17;4.60;;;4.30;;
56657;SDS011;42530;52.240;19.354;2022-09-21T06:35:55;4.82;;;4.25;;
56657;SDS011;42530;52.240;19.354;2022-09-21T06:38:22;4.15;;;3.72;;
56657;SDS011;42530;52.240;19.354;2022-09-21T06:40:48;3.78;;;3.47;;
56657;SDS011;42530;52.240;19.354;2022-09-21T06:43:15;3.85;;;3.28;;
56657;SDS011;42530;52.240;19.354;2022-09-21T06:45:40;3.67;;;3.38;;
56657;SDS011;42530;52.240;19.354;2022-09-21T06:48:06;3.50;;;3.20;;
56657;SDS011;42530;52.240;19.354;2022-09-21T06:50:31;5.72;;;4.32;;
56657;SDS011;42530;52.240;19.354;2022-09-21T06:53:00;3.58;;;3.38;;
56657;SDS011;42530;52.240;19.354;2022-09-21T06:55:27;11.43;;;3.97;;
56657;SDS011;42530;52.240;19.354;2022-09-21T06:57:58;5.65;;;3.47;;
56657;SDS011;42530;52.240;19.354;2022-09-21T07:00:26;4.15;;;3.15;;
56657;SDS011;42530;52.240;19.354;2022-09-21T07:02:51;3.55;;;3.10;;
56657;SDS011;42530;52.240;19.354;2022-09-21T07:05:17;3.53;;;3.22;;
56657;SDS011;42530;52.240;19.354;2022-09-21T07:07:42;3.10;;;2.80;;
56657;SDS011;42530;52.240;19.354;2022-09-21T07:10:08;7.22;;;3.63;;
56657;SDS011;42530;52.240;19.354;2022-09-21T07:12:33;3.30;;;2.67;;
56657;SDS011;42530;52.240;19.354;2022-09-21T07:15:00;5.07;;;3.25;;
56657;SDS011;42530;52.240;19.354;2022-09-21T07:17:33;2.85;;;2.58;;
56657;SDS011;42530;52.240;19.354;2022-09-21T07:20:00;4.50;;;3.55;;
56657;SDS011;42530;52.240;19.354;2022-09-21T07:22:29;4.10;;;2.78;;
56657;SDS011;42530;52.240;19.354;2022-09-21T07:24:55;3.83;;;2.88;;
56657;SDS011;42530;52.240;19.354;2022-09-21T07:27:22;4.10;;;3.80;;
56657;SDS011;42530;52.240;19.354;2022-09-21T07:29:51;5.82;;;3.28;;
56657;SDS011;42530;52.240;19.354;2022-09-21T07:32:18;7.65;;;4.40;;
56657;SDS011;42530;52.240;19.354;2022-09-21T07:34:44;2.88;;;2.67;;
56657;SDS011;42530;52.240;19.354;2022-09-21T07:37:10;3.63;;;3.30;;
56657;SDS011;42530;52.240;19.354;2022-09-21T07:39:36;3.67;;;2.45;;
56657;SDS011;42530;52.240;19.354;2022-09-21T07:42:03;5.03;;;2.75;;
56657;SDS011;42530;52.240;19.354;2022-09-21T07:44:30;2.42;;;2.33;;
56657;SDS011;42530;52.240;19.354;2022-09-21T07:46:55;3.33;;;3.08;;
56657;SDS011;42530;52.240;19.354;2022-09-21T07:49:20;4.15;;;3.40;;
56657;SDS011;42530;52.240;19.354;2022-09-21T07:51:46;3.13;;;2.92;;
56657;SDS011;42530;52.240;19.354;2022-09-21T07:54:13;3.28;;;2.80;;
56657;SDS011;42530;52.240;19.354;2022-09-21T07:56:40;6.40;;;3.95;;
56657;SDS011;42530;52.240;19.354;2022-09-21T07:59:07;3.20;;;3.00;;
56657;SDS011;42530;52.240;19.354;2022-09-21T08:01:36;6.35;;;3.85;;
56657;SDS011;42530;52.240;19.354;2022-09-21T08:04:03;2.92;;;2.63;;
56657;SDS011;42530;52.240;19.354;2022-09-21T08:06:34;5.78;;;3.72;;
56657;SDS011;42530;52.240;19.354;2022-09-21T08:09:02;4.10;;;3.80;;
56657;SDS011;42530;52.240;19.354;2022-09-21T08:11:28;2.42;;;2.33;;
56657;SDS011;42530;52.240;19.354;2022-09-21T08:13:56;2.22;;;1.75;;
56657;SDS011;42530;52.240;19.354;2022-09-21T08:16:23;3.28;;;2.20;;
56657;SDS011;42530;52.240;19.354;2022-09-21T08:18:49;2.63;;;2.35;;
56657;SDS011;42530;52.240;19.354;2022-09-21T08:21:15;3.80;;;2.58;;
56657;SDS011;42530;52.240;19.354;2022-09-21T08:23:42;3.50;;;3.15;;
56657;SDS011;42530;52.240;19.354;2022-09-21T08:26:08;2.67;;;2.47;;
56657;SDS011;42530;52.240;19.354;2022-09-21T08:28:36;5.95;;;2.95;;
56657;SDS011;42530;52.240;19.354;2022-09-21T08:31:03;4.30;;;2.50;;
56657;SDS011;42530;52.240;19.354;2022-09-21T08:33:34;3.20;;;2.92;;
56657;SDS011;42530;52.240;19.354;2022-09-21T08:35:59;4.38;;;2.05;;
56657;SDS011;42530;52.240;19.354;2022-09-21T08:38:26;2.00;;;1.73;;
56657;SDS011;42530;52.240;19.354;2022-09-21T08:40:56;1.98;;;1.88;;
56657;SDS011;42530;52.240;19.354;2022-09-21T08:46:11;2.75;;;2.50;;
56657;SDS011;42530;52.240;19.354;2022-09-21T08:48:49;6.32;;;2.58;;
56657;SDS011;42530;52.240;19.354;2022-09-21T08:51:24;2.20;;;2.03;;
56657;SDS011;42530;52.240;19.354;2022-09-21T08:53:54;2.90;;;1.80;;
56657;SDS011;42530;52.240;19.354;2022-09-21T08:56:24;2.80;;;1.67;;
56657;SDS011;42530;52.240;19.354;2022-09-21T08:58:51;1.77;;;1.63;;
56657;SDS011;42530;52.240;19.354;2022-09-21T09:04:17;3.08;;;2.40;;
56657;SDS011;42530;52.240;19.354;2022-09-21T09:20:12;2.67;;;2.45;;
56657;SDS011;42530;52.240;19.354;2022-09-21T09:25:37;2.28;;;2.08;;
56657;SDS011;42530;52.240;19.354;2022-09-21T09:31:00;3.15;;;2.47;;
56657;SDS011;42530;52.240;19.354;2022-09-21T09:36:27;2.72;;;2.53;;
56657;SDS011;42530;52.240;19.354;2022-09-21T09:38:59;2.05;;;1.88;;
56657;SDS011;42530;52.240;19.354;2022-09-21T09:52:34;2.00;;;1.85;;
56657;SDS011;42530;52.240;19.354;2022-09-21T09:55:00;5.85;;;1.90;;
56657;SDS011;42530;52.240;19.354;2022-09-21T09:57:41;2.22;;;1.67;;
56657;SDS011;42530;52.240;19.354;2022-09-21T10:00:07;3.40;;;2.63;;
56657;SDS011;42530;52.240;19.354;2022-09-21T10:02:33;4.18;;;2.22;;
56657;SDS011;42530;52.240;19.354;2022-09-21T10:05:17;2.85;;;2.50;;
56657;SDS011;42530;52.240;19.354;2022-09-21T10:07:48;2.65;;;1.75;;
56657;SDS011;42530;52.240;19.354;2022-09-21T10:12:46;3.10;;;2.35;;
56657;SDS011;42530;52.240;19.354;2022-09-21T10:15:12;3.15;;;1.42;;
56657;SDS011;42530;52.240;19.354;2022-09-21T10:17:41;1.77;;;1.67;;
56657;SDS011;42530;52.240;19.354;2022-09-21T10:20:14;1.42;;;1.33;;
56657;SDS011;42530;52.240;19.354;2022-09-21T10:22:43;2.45;;;1.75;;
56657;SDS011;42530;52.240;19.354;2022-09-21T10:25:15;2.80;;;1.85;;
56657;SDS011;42530;52.240;19.354;2022-09-21T10:27:43;1.60;;;1.50;;
56657;SDS011;42530;52.240;19.354;2022-09-21T10:32:55;2.13;;;2.03;;
56657;SDS011;42530;52.240;19.354;2022-09-21T10:35:22;3.33;;;1.70;;
56657;SDS011;42530;52.240;19.354;2022-09-21T10:38:07;3.63;;;1.67;;
56657;SDS011;42530;52.240;19.354;2022-09-21T10:40:35;1.85;;;1.63;;
56657;SDS011;42530;52.240;19.354;2022-09-21T10:43:02;3.65;;;1.95;;
56657;SDS011;42530;52.240;19.354;2022-09-21T10:45:29;2.28;;;1.55;;
56657;SDS011;42530;52.240;19.354;2022-09-21T10:50:27;3.45;;;1.52;;
56657;SDS011;42530;52.240;19.354;2022-09-21T10:53:00;9.82;;;8.82;;
56657;SDS011;42530;52.240;19.354;2022-09-21T10:55:27;4.88;;;3.30;;
56657;SDS011;42530;52.240;19.354;2022-09-21T10:57:54;9.93;;;6.45;;
56657;SDS011;42530;52.240;19.354;2022-09-21T11:02:50;2.63;;;2.42;;
56657;SDS011;42530;52.240;19.354;2022-09-21T11:05:19;1.90;;;1.80;;
56657;SDS011;42530;52.240;19.354;2022-09-21T11:16:20;1.48;;;1.38;;
56657;SDS011;42530;52.240;19.354;2022-09-21T11:21:48;4.75;;;2.22;;
56657;SDS011;42530;52.240;19.354;2022-09-21T11:29:50;2.20;;;1.60;;
56657;SDS011;42530;52.240;19.354;2022-09-21T11:49:28;1.30;;;1.20;;
56657;SDS011;42530;52.240;19.354;2022-09-21T11:52:27;3.63;;;1.85;;
56657;SDS011;42530;52.240;19.354;2022-09-21T11:55:18;0.93;;;0.93;;
56657;SDS011;42530;52.240;19.354;2022-09-21T11:57:58;1.05;;;0.80;;
56657;SDS011;42530;52.240;19.354;2022-09-21T12:00:33;1.10;;;1.10;;
56657;SDS011;42530;52.240;19.354;2022-09-21T12:14:28;1.67;;;1.58;;
56657;SDS011;42530;52.240;19.354;2022-09-21T12:17:13;1.15;;;0.95;;
56657;SDS011;42530;52.240;19.354;2022-09-21T12:22:43;1.50;;;1.40;;
56657;SDS011;42530;52.240;19.354;2022-09-21T12:27:52;1.45;;;0.90;;
56657;SDS011;42530;52.240;19.354;2022-09-21T12:30:24;0.90;;;0.90;;
56657;SDS011;42530;52.240;19.354;2022-09-21T12:38:20;1.20;;;1.10;;
56657;SDS011;42530;52.240;19.354;2022-09-21T12:40:53;1.20;;;0.90;;
56657;SDS011;42530;52.240;19.354;2022-09-21T12:43:31;0.80;;;0.80;;
56657;SDS011;42530;52.240;19.354;2022-09-21T12:48:47;1.60;;;1.50;;
56657;SDS011;42530;52.240;19.354;2022-09-21T12:53:43;0.90;;;0.80;;
56657;SDS011;42530;52.240;19.354;2022-09-21T12:56:14;1.38;;;1.02;;
56657;SDS011;42530;52.240;19.354;2022-09-21T12:59:01;1.92;;;1.33;;
56657;SDS011;42530;52.240;19.354;2022-09-21T13:01:41;1.00;;;1.00;;
56657;SDS011;42530;52.240;19.354;2022-09-21T13:05:20;0.85;;;0.85;;
56657;SDS011;42530;52.240;19.354;2022-09-21T13:09:57;2.20;;;1.45;;
56657;SDS011;42530;52.240;19.354;2022-09-21T13:12:31;1.10;;;1.10;;
56657;SDS011;42530;52.240;19.354;2022-09-21T13:15:13;3.15;;;1.95;;
56657;SDS011;42530;52.240;19.354;2022-09-21T13:17:46;1.25;;;1.20;;
56657;SDS011;42530;52.240;19.354;2022-09-21T13:20:37;1.30;;;1.15;;
56657;SDS011;42530;52.240;19.354;2022-09-21T13:23:05;3.35;;;1.40;;
56657;SDS011;42530;52.240;19.354;2022-09-21T13:25:40;3.53;;;1.38;;
56657;SDS011;42530;52.240;19.354;2022-09-21T13:33:37;2.03;;;1.92;;
56657;SDS011;42530;52.240;19.354;2022-09-21T13:36:47;2.63;;;2.42;;
56657;SDS011;42530;52.240;19.354;2022-09-21T13:39:14;2.53;;;2.05;;
56657;SDS011;42530;52.240;19.354;2022-09-21T13:41:41;2.97;;;1.88;;
56657;SDS011;42530;52.240;19.354;2022-09-21T13:44:21;3.67;;;1.50;;
56657;SDS011;42530;52.240;19.354;2022-09-21T13:47:04;2.30;;;1.90;;
56657;SDS011;42530;52.240;19.354;2022-09-21T13:49:37;1.92;;;1.83;;
56657;SDS011;42530;52.240;19.354;2022-09-21T13:54:44;4.72;;;2.88;;
56657;SDS011;42530;52.240;19.354;2022-09-21T13:57:15;3.70;;;3.03;;
56657;SDS011;42530;52.240;19.354;2022-09-21T13:59:42;1.80;;;1.58;;
56657;SDS011;42530;52.240;19.354;2022-09-21T14:02:32;4.38;;;1.85;;
56657;SDS011;42530;52.240;19.354;2022-09-21T14:05:46;2.25;;;2.10;;
56657;SDS011;42530;52.240;19.354;2022-09-21T14:08:06;1.40;;;1.25;;
56657;SDS011;42530;52.240;19.354;2022-09-21T14:11:01;1.77;;;1.67;;
56657;SDS011;42530;52.240;19.354;2022-09-21T14:18:57;2.25;;;1.27;;
56657;SDS011;42530;52.240;19.354;2022-09-21T14:21:22;2.05;;;1.30;;
56657;SDS011;42530;52.240;19.354;2022-09-21T14:26:34;1.15;;;1.02;;
56657;SDS011;42530;52.240;19.354;2022-09-21T14:31:46;1.50;;;1.40;;
56657;SDS011;42530;52.240;19.354;2022-09-21T14:34:18;1.23;;;0.90;;
56657;SDS011;42530;52.240;19.354;2022-09-21T14:36:49;1.27;;;1.17;;
56657;SDS011;42530;52.240;19.354;2022-09-21T14:39:20;1.25;;;1.15;;
56657;SDS011;42530;52.240;19.354;2022-09-21T14:41:49;1.35;;;1.30;;
56657;SDS011;42530;52.240;19.354;2022-09-21T14:44:19;2.33;;;1.77;;
56657;SDS011;42530;52.240;19.354;2022-09-21T14:47:02;2.20;;;2.00;;
56657;SDS011;42530;52.240;19.354;2022-09-21T15:00:41;4.63;;;3.58;;
56657;SDS011;42530;52.240;19.354;2022-09-21T15:05:58;6.40;;;5.90;;
56657;SDS011;42530;52.240;19.354;2022-09-21T15:12:30;11.23;;;10.07;;
56657;SDS011;42530;52.240;19.354;2022-09-21T15:15:51;4.57;;;4.07;;
56657;SDS011;42530;52.240;19.354;2022-09-21T15:17:54;3.63;;;3.25;;
56657;SDS011;42530;52.240;19.354;2022-09-21T15:20:23;2.47;;;2.35;;
56657;SDS011;42530;52.240;19.354;2022-09-21T15:22:54;2.70;;;2.38;;
56657;SDS011;42530;52.240;19.354;2022-09-21T15:25:21;2.53;;;2.33;;
56657;SDS011;42530;52.240;19.354;2022-09-21T15:27:48;2.38;;;2.28;;
56657;SDS011;42530;52.240;19.354;2022-09-21T15:30:19;2.45;;;2.08;;
56657;SDS011;42530;52.240;19.354;2022-09-21T15:32:47;2.47;;;2.28;;
56657;SDS011;42530;52.240;19.354;2022-09-21T15:37:52;5.15;;;3.95;;
56657;SDS011;42530;52.240;19.354;2022-09-21T15:40:23;7.40;;;3.92;;
56657;SDS011;42530;52.240;19.354;2022-09-21T15:42:57;5.82;;;3.45;;
56657;SDS011;42530;52.240;19.354;2022-09-21T15:45:30;3.63;;;2.72;;
56657;SDS011;42530;52.240;19.354;2022-09-21T15:50:27;2.85;;;2.65;;
56657;SDS011;42530;52.240;19.354;2022-09-21T15:52:55;4.28;;;2.35;;
56657;SDS011;42530;52.240;19.354;2022-09-21T15:55:26;3.05;;;2.83;;
56657;SDS011;42530;52.240;19.354;2022-09-21T15:57:54;2.85;;;2.25;;
56657;SDS011;42530;52.240;19.354;2022-09-21T16:00:22;2.60;;;2.25;;
56657;SDS011;42530;52.240;19.354;2022-09-21T16:05:51;2.37;;;2.27;;
56657;SDS011;42530;52.240;19.354;2022-09-21T16:08:21;3.22;;;2.92;;
56657;SDS011;42530;52.240;19.354;2022-09-21T16:14:10;4.43;;;3.10;;
56657;SDS011;42530;52.240;19.354;2022-09-21T16:17:17;3.58;;;3.30;;
56657;SDS011;42530;52.240;19.354;2022-09-21T16:22:22;5.82;;;4.47;;
56657;SDS011;42530;52.240;19.354;2022-09-21T16:24:53;12.55;;;11.32;;
56657;SDS011;42530;52.240;19.354;2022-09-21T16:27:22;8.57;;;7.57;;
56657;SDS011;42530;52.240;19.354;2022-09-21T16:29:50;9.43;;;7.47;;
56657;SDS011;42530;52.240;19.354;2022-09-21T16:34:47;5.63;;;5.13;;
56657;SDS011;42530;52.240;19.354;2022-09-21T16:39:53;6.20;;;5.60;;
56657;SDS011;42530;52.240;19.354;2022-09-21T16:42:22;6.13;;;5.57;;
56657;SDS011;42530;52.240;19.354;2022-09-21T16:44:51;5.85;;;4.95;;
56657;SDS011;42530;52.240;19.354;2022-09-21T16:47:17;5.60;;;5.10;;
56657;SDS011;42530;52.240;19.354;2022-09-21T16:49:51;7.38;;;6.55;;
56657;SDS011;42530;52.240;19.354;2022-09-21T16:52:25;8.75;;;5.22;;
56657;SDS011;42530;52.240;19.354;2022-09-21T16:54:54;3.50;;;3.13;;
56657;SDS011;42530;52.240;19.354;2022-09-21T16:57:21;3.58;;;2.80;;
56657;SDS011;42530;52.240;19.354;2022-09-21T16:59:48;2.92;;;2.70;;
56657;SDS011;42530;52.240;19.354;2022-09-21T17:02:14;4.90;;;4.45;;
56657;SDS011;42530;52.240;19.354;2022-09-21T17:04:41;7.45;;;6.68;;
56657;SDS011;42530;52.240;19.354;2022-09-21T17:07:16;12.38;;;10.35;;
56657;SDS011;42530;52.240;19.354;2022-09-21T17:09:43;13.75;;;11.48;;
56657;SDS011;42530;52.240;19.354;2022-09-21T17:12:12;15.48;;;13.95;;
56657;SDS011;42530;52.240;19.354;2022-09-21T17:14:41;15.40;;;13.90;;
56657;SDS011;42530;52.240;19.354;2022-09-21T17:17:12;13.25;;;11.85;;
56657;SDS011;42530;52.240;19.354;2022-09-21T17:19:48;12.88;;;11.55;;
56657;SDS011;42530;52.240;19.354;2022-09-21T17:22:15;10.93;;;9.82;;
56657;SDS011;42530;52.240;19.354;2022-09-21T17:24:42;11.02;;;9.88;;
56657;SDS011;42530;52.240;19.354;2022-09-21T17:27:12;10.23;;;9.05;;
56657;SDS011;42530;52.240;19.354;2022-09-21T17:29:38;9.48;;;8.35;;
56657;SDS011;42530;52.240;19.354;2022-09-21T17:32:13;8.70;;;7.80;;
56657;SDS011;42530;52.240;19.354;2022-09-21T17:34:44;12.35;;;11.07;;
56657;SDS011;42530;52.240;19.354;2022-09-21T17:37:10;11.63;;;10.43;;
56657;SDS011;42530;52.240;19.354;2022-09-21T17:39:36;10.75;;;9.50;;
56657;SDS011;42530;52.240;19.354;2022-09-21T17:42:03;9.35;;;8.55;;
56657;SDS011;42530;52.240;19.354;2022-09-21T17:47:24;7.90;;;7.15;;
56657;SDS011;42530;52.240;19.354;2022-09-21T17:49:54;11.18;;;6.82;;
56657;SDS011;42530;52.240;19.354;2022-09-21T17:52:23;7.53;;;6.78;;
56657;SDS011;42530;52.240;19.354;2022-09-21T17:55:09;6.63;;;6.03;;
56657;SDS011;42530;52.240;19.354;2022-09-21T18:02:43;7.20;;;5.55;;
56657;SDS011;42530;52.240;19.354;2022-09-21T18:05:24;5.95;;;5.35;;
56657;SDS011;42530;52.240;19.354;2022-09-21T18:07:51;7.15;;;6.45;;
56657;SDS011;42530;52.240;19.354;2022-09-21T18:10:21;7.55;;;6.80;;
56657;SDS011;42530;52.240;19.354;2022-09-21T18:18:16;8.30;;;7.55;;
56657;SDS011;42530;52.240;19.354;2022-09-21T18:20:51;8.35;;;7.55;;
56657;SDS011;42530;52.240;19.354;2022-09-21T18:26:24;9.35;;;6.85;;
56657;SDS011;42530;52.240;19.354;2022-09-21T18:28:50;10.48;;;7.95;;
56657;SDS011;42530;52.240;19.354;2022-09-21T18:37:38;9.75;;;8.30;;
56657;SDS011;42530;52.240;19.354;2022-09-21T18:40:39;8.40;;;7.57;;
56657;SDS011;42530;52.240;19.354;2022-09-21T18:43:36;8.25;;;7.50;;